Time;durP1;ratioP1;P1;durP2;ratioP2;P2;SDS_P1;SDS_P2;PMS_P1;PMS_P2;Temp;Humidity;BMP_temperature;BMP_pressure;BME280_temperature;BME280_humidity;BME280_pressure;Samples;Min_cycle;Max_cycle;Signal;HPM_P1;HPM_P2
2023/03/14 00:02:06;;;;;;;9.20;8.80;;;;;;;;;;5071726;28;20028;-64
2023/03/14 00:04:31;;;;;;;9.07;8.68;;;;;;;;;;5067192;28;20459;-64
2023/03/14 00:06:57;;;;;;;9.20;8.80;;;;;;;;;;5067033;28;20383;-63
2023/03/14 00:09:22;;;;;;;9.55;9.05;;;;;;;;;;5071887;28;20103;-64
2023/03/14 00:11:47;;;;;;;9.00;8.60;;;;;;;;;;5066297;28;20028;-64
2023/03/14 00:14:15;;;;;;;9.10;8.70;;;;;;;;;;5067126;28;20045;-64
2023/03/14 00:16:40;;;;;;;9.20;8.80;;;;;;;;;;5055294;28;20040;-64
2023/03/14 00:19:06;;;;;;;8.90;8.50;;;;;;;;;;5071170;28;20024;-62
2023/03/14 00:21:31;;;;;;;9.93;9.43;;;;;;;;;;5069357;28;20399;-63
2023/03/14 00:23:56;;;;;;;9.00;8.60;;;;;;;;;;5056634;28;20029;-64
2023/03/14 00:26:22;;;;;;;9.00;8.60;;;;;;;;;;5071300;28;20167;-64
2023/03/14 00:28:50;;;;;;;9.15;8.75;;;;;;;;;;5060876;28;20491;-64
2023/03/14 00:31:15;;;;;;;8.85;8.45;;;;;;;;;;5057970;28;20097;-63
2023/03/14 00:33:41;;;;;;;9.45;8.95;;;;;;;;;;5068036;28;20059;-63
2023/03/14 00:36:08;;;;;;;9.05;8.60;;;;;;;;;;5070450;28;20044;-63
2023/03/14 00:38:34;;;;;;;9.27;8.85;;;;;;;;;;5069904;28;20021;-63
2023/03/14 00:41:03;;;;;;;9.20;8.75;;;;;;;;;;5071162;28;20025;-63
2023/03/14 00:43:28;;;;;;;9.30;8.85;;;;;;;;;;5076518;28;20016;-63
2023/03/14 00:45:53;;;;;;;8.95;8.55;;;;;;;;;;5073935;28;20112;-64
2023/03/14 00:48:19;;;;;;;8.70;8.30;;;;;;;;;;5067084;28;20673;-63
2023/03/14 00:50:45;;;;;;;8.65;8.25;;;;;;;;;;5061948;28;20025;-64
2023/03/14 00:53:10;;;;;;;9.10;8.70;;;;;;;;;;5068699;28;20531;-64
2023/03/14 00:55:40;;;;;;;8.98;8.57;;;;;;;;;;5060637;28;20059;-63
2023/03/14 00:58:06;;;;;;;9.43;8.93;;;;;;;;;;5074418;28;20380;-63
2023/03/14 01:00:31;;;;;;;9.55;9.05;;;;;;;;;;5077161;28;20047;-62
2023/03/14 01:02:56;;;;;;;8.80;8.40;;;;;;;;;;5074405;28;20070;-64
2023/03/14 01:05:22;;;;;;;8.77;8.38;;;;;;;;;;5074384;28;20471;-64
2023/03/14 01:07:47;;;;;;;8.93;8.52;;;;;;;;;;5068926;28;20056;-65
2023/03/14 01:10:13;;;;;;;9.18;8.75;;;;;;;;;;5070683;28;20077;-63
2023/03/14 01:12:38;;;;;;;9.45;8.95;;;;;;;;;;5072270;28;20024;-64
2023/03/14 01:15:03;;;;;;;9.02;8.63;;;;;;;;;;5073553;28;20027;-63
2023/03/14 01:17:29;;;;;;;9.00;8.60;;;;;;;;;;5074659;28;20082;-63
2023/03/14 01:19:55;;;;;;;9.40;8.90;;;;;;;;;;5072633;28;20047;-64
2023/03/14 01:22:21;;;;;;;8.93;8.52;;;;;;;;;;5060430;28;20426;-65
2023/03/14 01:24:46;;;;;;;9.13;8.73;;;;;;;;;;5069711;28;20116;-65
2023/03/14 01:27:12;;;;;;;8.88;8.48;;;;;;;;;;5073241;28;20024;-65
2023/03/14 01:29:37;;;;;;;9.38;8.88;;;;;;;;;;5054528;28;20031;-64
2023/03/14 01:32:03;;;;;;;9.23;8.82;;;;;;;;;;5068642;28;20032;-63
2023/03/14 01:34:28;;;;;;;8.82;8.43;;;;;;;;;;5074715;28;20021;-65
2023/03/14 01:36:53;;;;;;;9.90;9.40;;;;;;;;;;5072354;28;20036;-64
2023/03/14 01:39:18;;;;;;;9.40;8.90;;;;;;;;;;5071993;28;20028;-65
2023/03/14 01:41:44;;;;;;;9.02;8.63;;;;;;;;;;5075281;28;20009;-63
2023/03/14 01:44:10;;;;;;;9.43;8.93;;;;;;;;;;5074808;28;20090;-64
2023/03/14 01:46:39;;;;;;;8.82;8.43;;;;;;;;;;5072715;28;20077;-64
2023/03/14 01:49:07;;;;;;;8.88;8.48;;;;;;;;;;5073414;28;20395;-64
2023/03/14 01:51:40;;;;;;;9.48;8.98;;;;;;;;;;5073785;28;20025;-64
2023/03/14 01:54:09;;;;;;;9.02;8.63;;;;;;;;;;5071666;28;20025;-64
2023/03/14 01:56:35;;;;;;;9.07;8.68;;;;;;;;;;5071037;28;20055;-64
2023/03/14 01:59:02;;;;;;;9.00;8.60;;;;;;;;;;5075561;28;20025;-64
2023/03/14 02:01:28;;;;;;;9.68;9.18;;;;;;;;;;5074143;28;20448;-63
2023/03/14 02:03:54;;;;;;;9.43;8.93;;;;;;;;;;5067616;28;20027;-63
2023/03/14 02:06:22;;;;;;;9.52;9.02;;;;;;;;;;5072815;28;20016;-63
2023/03/14 02:08:49;;;;;;;9.02;8.63;;;;;;;;;;5073701;28;20472;-63
2023/03/14 02:11:14;;;;;;;8.90;8.50;;;;;;;;;;5073640;28;20052;-64
2023/03/14 02:13:40;;;;;;;9.35;8.90;;;;;;;;;;5058918;28;20048;-64
2023/03/14 02:16:05;;;;;;;9.10;8.70;;;;;;;;;;5073551;28;20025;-64
2023/03/14 02:18:31;;;;;;;9.48;8.98;;;;;;;;;;5072332;28;20020;-64
2023/03/14 02:21:18;;;;;;;8.73;8.32;;;;;;;;;;5070919;28;20021;-64
2023/03/14 02:23:48;;;;;;;9.55;9.05;;;;;;;;;;5059482;28;20019;-63
2023/03/14 02:26:22;;;;;;;9.57;9.07;;;;;;;;;;5074944;28;20036;-63
2023/03/14 02:28:48;;;;;;;9.15;8.73;;;;;;;;;;5071611;28;20017;-62
2023/03/14 02:31:14;;;;;;;9.32;8.82;;;;;;;;;;5060003;28;20078;-63
2023/03/14 02:33:39;;;;;;;9.90;9.40;;;;;;;;;;5072503;28;20104;-63
2023/03/14 02:36:06;;;;;;;9.77;9.27;;;;;;;;;;5066905;28;20500;-63
2023/03/14 02:38:47;;;;;;;9.80;9.30;;;;;;;;;;5072248;28;20016;-63
2023/03/14 02:41:12;;;;;;;8.90;8.50;;;;;;;;;;5060786;28;20025;-63
2023/03/14 02:43:37;;;;;;;9.20;8.80;;;;;;;;;;5074819;28;20038;-64
2023/03/14 02:46:05;;;;;;;9.30;8.82;;;;;;;;;;5067163;28;20108;-63
2023/03/14 02:48:30;;;;;;;9.52;9.02;;;;;;;;;;5063222;28;20035;-64
2023/03/14 02:50:56;;;;;;;9.30;8.80;;;;;;;;;;5058372;28;20012;-64
2023/03/14 02:53:24;;;;;;;9.07;8.68;;;;;;;;;;5070235;28;20097;-64
2023/03/14 02:55:50;;;;;;;8.57;8.18;;;;;;;;;;5070804;28;20483;-64
2023/03/14 02:58:16;;;;;;;9.52;9.02;;;;;;;;;;5071938;28;20111;-64
2023/03/14 03:00:41;;;;;;;9.10;8.70;;;;;;;;;;5070947;28;20043;-64
2023/03/14 03:03:06;;;;;;;8.80;8.40;;;;;;;;;;5068444;28;20047;-64
2023/03/14 03:05:32;;;;;;;8.90;8.50;;;;;;;;;;5065629;28;20024;-65
2023/03/14 03:07:57;;;;;;;8.65;8.25;;;;;;;;;;5067990;28;20083;-63
2023/03/14 03:10:23;;;;;;;9.10;8.65;;;;;;;;;;5071170;28;20025;-63
2023/03/14 03:12:48;;;;;;;9.20;8.80;;;;;;;;;;5071805;28;20031;-63
2023/03/14 03:15:13;;;;;;;8.55;8.15;;;;;;;;;;5072231;28;20479;-63
2023/03/14 03:17:39;;;;;;;9.35;8.85;;;;;;;;;;5063918;28;20090;-63
2023/03/14 03:20:05;;;;;;;8.70;8.30;;;;;;;;;;5072114;28;20024;-63
2023/03/14 03:22:30;;;;;;;9.07;8.68;;;;;;;;;;5070723;28;20036;-63
2023/03/14 03:24:56;;;;;;;10.23;9.63;;;;;;;;;;5061679;28;20047;-63
2023/03/14 03:27:21;;;;;;;9.38;8.88;;;;;;;;;;5069819;28;20078;-63
2023/03/14 03:29:47;;;;;;;9.05;8.65;;;;;;;;;;5067094;28;20029;-63
2023/03/14 03:32:12;;;;;;;8.60;8.20;;;;;;;;;;5071817;28;20432;-63
2023/03/14 03:34:38;;;;;;;9.43;8.93;;;;;;;;;;5072317;28;20041;-63
2023/03/14 03:37:03;;;;;;;9.25;8.75;;;;;;;;;;5071531;28;20024;-63
2023/03/14 03:39:28;;;;;;;9.55;9.05;;;;;;;;;;5071555;28;20020;-63
2023/03/14 03:41:53;;;;;;;8.98;8.57;;;;;;;;;;5069253;28;20025;-63
2023/03/14 03:44:19;;;;;;;8.52;8.13;;;;;;;;;;5063855;28;20040;-63
2023/03/14 03:46:44;;;;;;;9.35;8.85;;;;;;;;;;5066702;28;20016;-64
2023/03/14 03:49:11;;;;;;;9.00;8.60;;;;;;;;;;5071396;28;20017;-64
2023/03/14 03:51:36;;;;;;;9.05;8.65;;;;;;;;;;5070727;28;20463;-64
2023/03/14 03:54:01;;;;;;;8.90;8.50;;;;;;;;;;5070454;28;20024;-64
2023/03/14 03:56:27;;;;;;;8.90;8.50;;;;;;;;;;5057683;28;20044;-64
2023/03/14 03:58:52;;;;;;;9.43;8.93;;;;;;;;;;5070077;28;20024;-64
2023/03/14 04:01:18;;;;;;;9.20;8.70;;;;;;;;;;5053360;28;20024;-64
2023/03/14 04:03:43;;;;;;;9.27;8.77;;;;;;;;;;5067568;28;20017;-64
2023/03/14 04:06:09;;;;;;;9.68;9.18;;;;;;;;;;5065308;28;24441;-64
2023/03/14 04:08:35;;;;;;;8.80;8.40;;;;;;;;;;5068166;28;20495;-63
2023/03/14 04:11:01;;;;;;;9.30;8.80;;;;;;;;;;5071471;28;20032;-64
2023/03/14 04:13:28;;;;;;;9.65;9.15;;;;;;;;;;5059871;28;20021;-63
2023/03/14 04:15:53;;;;;;;9.50;9.00;;;;;;;;;;5071115;28;20021;-63
2023/03/14 04:18:19;;;;;;;8.85;8.45;;;;;;;;;;5070915;28;20028;-63
2023/03/14 04:20:44;;;;;;;9.27;8.77;;;;;;;;;;5072631;28;20491;-64
2023/03/14 04:23:09;;;;;;;9.30;8.80;;;;;;;;;;5074273;28;20503;-63
2023/03/14 04:25:35;;;;;;;9.35;8.85;;;;;;;;;;5075262;28;20045;-64
2023/03/14 04:28:00;;;;;;;9.35;8.85;;;;;;;;;;5079086;28;20035;-64
2023/03/14 04:30:26;;;;;;;9.60;9.10;;;;;;;;;;5067654;28;20024;-64
2023/03/14 04:32:51;;;;;;;9.50;9.00;;;;;;;;;;5074697;28;20527;-63
2023/03/14 04:35:16;;;;;;;8.40;8.00;;;;;;;;;;5074070;28;20024;-64
2023/03/14 04:37:43;;;;;;;9.05;8.63;;;;;;;;;;5073518;28;20016;-64
2023/03/14 04:40:09;;;;;;;9.60;9.10;;;;;;;;;;5074197;28;20132;-63
2023/03/14 04:42:34;;;;;;;9.68;9.18;;;;;;;;;;5062005;28;20155;-63
2023/03/14 04:45:00;;;;;;;9.25;8.77;;;;;;;;;;5074515;28;20035;-64
2023/03/14 04:47:25;;;;;;;8.73;8.32;;;;;;;;;;5073201;28;20082;-63
2023/03/14 04:49:51;;;;;;;8.93;8.52;;;;;;;;;;5074595;28;20024;-63
2023/03/14 04:52:16;;;;;;;9.57;9.07;;;;;;;;;;5068649;28;20070;-63
2023/03/14 04:54:41;;;;;;;9.13;8.73;;;;;;;;;;5074391;28;20051;-63
2023/03/14 04:57:06;;;;;;;9.27;8.88;;;;;;;;;;5074661;28;20110;-63
2023/03/14 04:59:32;;;;;;;9.80;9.30;;;;;;;;;;5075021;28;20036;-63
2023/03/14 05:01:57;;;;;;;8.70;8.30;;;;;;;;;;5074803;28;20020;-64
2023/03/14 05:04:22;;;;;;;9.20;8.80;;;;;;;;;;5065387;28;20020;-63
2023/03/14 05:06:48;;;;;;;9.73;9.23;;;;;;;;;;5065471;28;20116;-64
2023/03/14 05:09:14;;;;;;;9.73;9.25;;;;;;;;;;5068422;28;20480;-64
2023/03/14 05:11:40;;;;;;;9.80;9.30;;;;;;;;;;5073951;28;20024;-64
2023/03/14 05:14:05;;;;;;;9.43;9.02;;;;;;;;;;5073921;28;20039;-63
2023/03/14 05:16:31;;;;;;;10.38;9.88;;;;;;;;;;5064304;28;20021;-64
2023/03/14 05:18:56;;;;;;;10.63;10.13;;;;;;;;;;5073700;28;20510;-63
2023/03/14 05:21:21;;;;;;;10.32;9.82;;;;;;;;;;5073826;28;20407;-63
2023/03/14 05:23:46;;;;;;;10.07;9.57;;;;;;;;;;5068408;28;20639;-64
2023/03/14 05:26:12;;;;;;;10.00;9.50;;;;;;;;;;5066370;28;20391;-64
2023/03/14 05:28:37;;;;;;;10.25;9.75;;;;;;;;;;5069590;28;20021;-64
2023/03/14 05:31:06;;;;;;;9.95;9.50;;;;;;;;;;5068508;28;20492;-65
2023/03/14 05:33:31;;;;;;;10.10;9.60;;;;;;;;;;5056789;28;20399;-63
2023/03/14 05:35:56;;;;;;;9.70;9.30;;;;;;;;;;5070852;28;20024;-65
2023/03/14 05:38:22;;;;;;;9.82;9.38;;;;;;;;;;5062926;28;20025;-65
2023/03/14 05:40:47;;;;;;;10.15;9.65;;;;;;;;;;5072891;28;20111;-65
2023/03/14 05:43:13;;;;;;;10.23;9.73;;;;;;;;;;5065331;28;20043;-65
2023/03/14 05:45:38;;;;;;;10.27;9.77;;;;;;;;;;5068861;28;20027;-64
2023/03/14 05:48:03;;;;;;;10.73;10.23;;;;;;;;;;5063286;28;20020;-64
2023/03/14 05:50:29;;;;;;;10.30;9.80;;;;;;;;;;5085393;28;20020;-65
2023/03/14 05:52:54;;;;;;;10.40;9.90;;;;;;;;;;5066618;28;20021;-64
2023/03/14 05:55:20;;;;;;;10.70;10.20;;;;;;;;;;5069019;28;20039;-65
2023/03/14 05:57:45;;;;;;;10.57;10.07;;;;;;;;;;5072730;28;20077;-65
2023/03/14 06:00:10;;;;;;;10.63;10.13;;;;;;;;;;5070449;28;20040;-64
2023/03/14 06:02:36;;;;;;;10.10;9.60;;;;;;;;;;5073204;28;20052;-65
2023/03/14 06:05:01;;;;;;;9.65;9.25;;;;;;;;;;5072862;28;20021;-66
2023/03/14 06:07:26;;;;;;;9.45;9.05;;;;;;;;;;5071961;28;20050;-64
2023/03/14 06:09:52;;;;;;;10.05;9.60;;;;;;;;;;5072502;28;20024;-65
2023/03/14 06:12:17;;;;;;;10.57;10.07;;;;;;;;;;5072546;28;20024;-64
2023/03/14 06:14:42;;;;;;;10.07;9.57;;;;;;;;;;5072719;28;20031;-64
2023/03/14 06:17:08;;;;;;;10.30;9.80;;;;;;;;;;5062171;28;20024;-65
2023/03/14 06:19:33;;;;;;;10.38;9.88;;;;;;;;;;5070962;28;20434;-64
2023/03/14 06:21:58;;;;;;;10.00;9.60;;;;;;;;;;5073014;28;20074;-64
2023/03/14 06:24:24;;;;;;;10.57;10.07;;;;;;;;;;5073245;28;20039;-63
2023/03/14 06:26:49;;;;;;;9.90;9.50;;;;;;;;;;5071683;28;20391;-65
2023/03/14 06:29:14;;;;;;;9.90;9.50;;;;;;;;;;5066667;28;20475;-64
2023/03/14 06:31:39;;;;;;;10.70;10.20;;;;;;;;;;5071991;28;20036;-66
2023/03/14 06:34:05;;;;;;;10.65;10.15;;;;;;;;;;5068609;28;20494;-63
2023/03/14 06:36:30;;;;;;;10.55;10.05;;;;;;;;;;5067580;28;20052;-65
2023/03/14 06:38:55;;;;;;;10.35;9.85;;;;;;;;;;5071630;28;20017;-64
2023/03/14 06:41:23;;;;;;;10.10;9.70;;;;;;;;;;5073203;28;20044;-65
2023/03/14 06:43:49;;;;;;;10.05;9.65;;;;;;;;;;5071772;28;20100;-64
2023/03/14 06:46:15;;;;;;;11.57;11.07;;;;;;;;;;5068694;28;20073;-64
2023/03/14 06:48:40;;;;;;;10.60;10.10;;;;;;;;;;5063132;28;20023;-65
2023/03/14 06:51:06;;;;;;;10.20;9.77;;;;;;;;;;5071370;28;20029;-65
2023/03/14 06:53:31;;;;;;;10.57;10.07;;;;;;;;;;5066508;28;20029;-64
2023/03/14 06:55:57;;;;;;;10.82;10.32;;;;;;;;;;5064722;28;20033;-64
2023/03/14 06:58:22;;;;;;;10.50;10.00;;;;;;;;;;5077450;28;20029;-64
2023/03/14 07:00:47;;;;;;;10.85;10.35;;;;;;;;;;5051925;28;20093;-61
2023/03/14 07:03:13;;;;;;;11.68;11.18;;;;;;;;;;5058818;28;20070;-65
2023/03/14 07:05:40;;;;;;;11.88;11.38;;;;;;;;;;5057419;28;20854;-65
2023/03/14 07:08:05;;;;;;;11.25;10.75;;;;;;;;;;5070373;28;20400;-66
2023/03/14 07:10:31;;;;;;;11.25;10.75;;;;;;;;;;5063924;28;20020;-65
2023/03/14 07:12:56;;;;;;;11.00;10.50;;;;;;;;;;5068957;28;20021;-64
2023/03/14 07:15:21;;;;;;;11.60;11.10;;;;;;;;;;5070209;28;20507;-65
2023/03/14 07:17:47;;;;;;;10.88;10.38;;;;;;;;;;5064597;28;20651;-65
2023/03/14 07:20:13;;;;;;;11.02;10.52;;;;;;;;;;5064515;28;20031;-68
2023/03/14 07:22:38;;;;;;;11.27;10.77;;;;;;;;;;5072195;28;20024;-64
2023/03/14 07:25:04;;;;;;;11.32;10.82;;;;;;;;;;5067101;28;20154;-66
2023/03/14 07:27:29;;;;;;;10.88;10.38;;;;;;;;;;5071283;28;20054;-65
2023/03/14 07:29:54;;;;;;;11.32;10.82;;;;;;;;;;5068825;28;20586;-62
2023/03/14 07:32:20;;;;;;;10.98;10.48;;;;;;;;;;5073435;28;20055;-63
2023/03/14 07:34:45;;;;;;;11.23;10.73;;;;;;;;;;5067038;28;20094;-63
2023/03/14 07:37:10;;;;;;;10.52;10.02;;;;;;;;;;5070731;28;20024;-61
2023/03/14 07:39:35;;;;;;;10.73;10.23;;;;;;;;;;5062914;28;20077;-62
2023/03/14 07:42:01;;;;;;;10.07;9.68;;;;;;;;;;5058810;28;20020;-61
2023/03/14 07:44:26;;;;;;;11.00;10.50;;;;;;;;;;5060317;28;20023;-65
2023/03/14 07:46:53;;;;;;;11.00;10.50;;;;;;;;;;5067505;28;20024;-66
2023/03/14 07:49:18;;;;;;;12.10;11.50;;;;;;;;;;5066150;28;20055;-64
2023/03/14 07:51:46;;;;;;;11.55;11.05;;;;;;;;;;5057652;28;20047;-68
2023/03/14 07:54:11;;;;;;;11.55;11.05;;;;;;;;;;5057108;28;20960;-67
2023/03/14 07:56:37;;;;;;;11.43;10.93;;;;;;;;;;5072384;28;20499;-66
2023/03/14 07:59:03;;;;;;;10.82;10.32;;;;;;;;;;5076897;28;20031;-67
2023/03/14 08:01:28;;;;;;;10.75;10.25;;;;;;;;;;5066995;28;20097;-67
2023/03/14 08:03:54;;;;;;;10.60;10.10;;;;;;;;;;5080055;28;20483;-66
2023/03/14 08:06:19;;;;;;;10.88;10.38;;;;;;;;;;5074637;28;20047;-68
2023/03/14 08:08:44;;;;;;;10.48;9.98;;;;;;;;;;5072232;28;20512;-66
2023/03/14 08:11:09;;;;;;;10.85;10.35;;;;;;;;;;5069299;28;20028;-68
2023/03/14 08:13:35;;;;;;;11.43;10.93;;;;;;;;;;5073205;28;20022;-65
2023/03/14 08:16:01;;;;;;;10.93;10.43;;;;;;;;;;5076537;28;20158;-65
2023/03/14 08:18:26;;;;;;;10.80;10.30;;;;;;;;;;5066395;28;20053;-64
2023/03/14 08:20:51;;;;;;;10.63;10.13;;;;;;;;;;5079097;28;20475;-66
2023/03/14 08:23:17;;;;;;;10.50;10.00;;;;;;;;;;5074909;28;20075;-66
2023/03/14 08:25:43;;;;;;;10.80;10.30;;;;;;;;;;5066057;28;20498;-66
2023/03/14 08:28:08;;;;;;;10.50;10.00;;;;;;;;;;5076034;28;20024;-67
2023/03/14 08:30:33;;;;;;;11.52;11.02;;;;;;;;;;5068610;28;20051;-65
2023/03/14 08:32:59;;;;;;;10.77;10.27;;;;;;;;;;5074808;28;20387;-66
2023/03/14 08:35:25;;;;;;;11.00;10.50;;;;;;;;;;5077896;28;20117;-67
2023/03/14 08:37:51;;;;;;;11.05;10.55;;;;;;;;;;5072529;28;20133;-67
2023/03/14 08:40:17;;;;;;;12.40;11.80;;;;;;;;;;5069027;28;20027;-65
2023/03/14 08:42:42;;;;;;;11.27;10.77;;;;;;;;;;5082103;28;20024;-69
2023/03/14 08:45:08;;;;;;;11.32;10.82;;;;;;;;;;5074678;28;20119;-68
2023/03/14 08:47:34;;;;;;;11.25;10.75;;;;;;;;;;5065432;28;20026;-68
2023/03/14 08:49:59;;;;;;;11.10;10.60;;;;;;;;;;5076085;28;20073;-66
2023/03/14 08:52:24;;;;;;;11.07;10.57;;;;;;;;;;5086443;28;20028;-68
2023/03/14 08:54:50;;;;;;;10.98;10.48;;;;;;;;;;5067903;28;20032;-68
2023/03/14 08:57:15;;;;;;;11.13;10.63;;;;;;;;;;5079575;28;20791;-68
2023/03/14 08:59:40;;;;;;;11.52;10.93;;;;;;;;;;5078550;28;20471;-67
2023/03/14 09:02:06;;;;;;;11.65;11.05;;;;;;;;;;5073598;28;20020;-67
2023/03/14 09:04:32;;;;;;;10.60;10.10;;;;;;;;;;5072337;28;22055;-67
2023/03/14 09:07:00;;;;;;;11.82;11.23;;;;;;;;;;5066900;28;20016;-66
2023/03/14 09:09:28;;;;;;;12.10;11.50;;;;;;;;;;5067323;28;20433;-66
2023/03/14 09:11:54;;;;;;;12.85;12.15;;;;;;;;;;5060262;28;20024;-66
2023/03/14 09:14:20;;;;;;;10.98;10.45;;;;;;;;;;5067738;28;20439;-66
2023/03/14 09:16:46;;;;;;;11.27;10.68;;;;;;;;;;5070616;28;20132;-66
2023/03/14 09:19:11;;;;;;;11.80;11.20;;;;;;;;;;5078853;28;20123;-68
2023/03/14 09:21:38;;;;;;;12.25;11.65;;;;;;;;;;5073661;28;20077;-65
2023/03/14 09:24:03;;;;;;;11.25;10.65;;;;;;;;;;5075142;28;20020;-66
2023/03/14 09:26:29;;;;;;;11.77;11.10;;;;;;;;;;5073932;28;20036;-66
2023/03/14 09:28:54;;;;;;;11.73;11.13;;;;;;;;;;5068483;28;20030;-64
2023/03/14 09:31:19;;;;;;;11.63;11.02;;;;;;;;;;5067349;28;20093;-65
2023/03/14 09:33:45;;;;;;;12.05;11.45;;;;;;;;;;5068902;28;20522;-66
2023/03/14 09:36:10;;;;;;;11.02;10.52;;;;;;;;;;5068797;28;20060;-63
2023/03/14 09:38:36;;;;;;;10.82;10.32;;;;;;;;;;5071515;28;20082;-66
2023/03/14 09:41:02;;;;;;;11.45;10.85;;;;;;;;;;5077289;28;20116;-66
2023/03/14 09:43:32;;;;;;;12.35;11.75;;;;;;;;;;5071426;28;20024;-70
2023/03/14 09:46:01;;;;;;;12.07;11.48;;;;;;;;;;5070704;28;20055;-66
2023/03/14 09:48:27;;;;;;;10.68;10.18;;;;;;;;;;5067215;28;20112;-69
2023/03/14 09:50:56;;;;;;;11.32;10.73;;;;;;;;;;5078736;28;20107;-66
2023/03/14 09:53:25;;;;;;;11.00;10.48;;;;;;;;;;5078747;28;20024;-62
2023/03/14 09:55:52;;;;;;;10.15;9.65;;;;;;;;;;5069473;28;20055;-66
2023/03/14 09:58:22;;;;;;;11.20;10.63;;;;;;;;;;5072978;28;20566;-67
2023/03/14 10:00:49;;;;;;;11.35;10.75;;;;;;;;;;5070239;28;20031;-65
2023/03/14 10:03:17;;;;;;;10.48;9.98;;;;;;;;;;5063624;28;20025;-66
2023/03/14 10:05:42;;;;;;;11.77;11.18;;;;;;;;;;5068262;28;20028;-68
2023/03/14 10:08:11;;;;;;;11.43;10.82;;;;;;;;;;5070842;28;20032;-67
2023/03/14 10:10:36;;;;;;;11.27;10.68;;;;;;;;;;5059248;28;20134;-68
2023/03/14 10:13:12;;;;;;;11.85;11.25;;;;;;;;;;5075353;28;20032;-67
2023/03/14 10:15:37;;;;;;;11.35;10.75;;;;;;;;;;5071479;28;20021;-66
2023/03/14 10:18:03;;;;;;;11.30;10.70;;;;;;;;;;5073429;28;20069;-67
2023/03/14 10:20:32;;;;;;;11.63;11.02;;;;;;;;;;5062699;28;20102;-65
2023/03/14 10:22:58;;;;;;;10.80;10.30;;;;;;;;;;5078250;28;20491;-66
2023/03/14 10:25:25;;;;;;;11.38;10.77;;;;;;;;;;5073060;28;20031;-66
2023/03/14 10:27:51;;;;;;;11.15;10.55;;;;;;;;;;5075098;28;20104;-63
2023/03/14 10:30:35;;;;;;;10.90;10.40;;;;;;;;;;5065747;28;20062;-66
2023/03/14 10:33:11;;;;;;;10.98;10.43;;;;;;;;;;5070405;28;20461;-68
2023/03/14 10:35:36;;;;;;;10.43;9.93;;;;;;;;;;5067061;28;20029;-66
2023/03/14 10:38:03;;;;;;;10.68;10.18;;;;;;;;;;5072312;28;20016;-68
2023/03/14 10:40:30;;;;;;;11.68;11.07;;;;;;;;;;5079647;28;20114;-66
2023/03/14 10:42:57;;;;;;;11.82;11.23;;;;;;;;;;5070413;28;20077;-68
2023/03/14 10:45:29;;;;;;;11.75;11.15;;;;;;;;;;5062766;28;20041;-67
2023/03/14 10:47:54;;;;;;;10.38;9.88;;;;;;;;;;5063654;28;20237;-68
2023/03/14 10:50:23;;;;;;;10.63;10.13;;;;;;;;;;5068680;28;20033;-70
2023/03/14 10:52:48;;;;;;;11.18;10.57;;;;;;;;;;5064413;28;20075;-68
2023/03/14 10:55:14;;;;;;;11.23;10.63;;;;;;;;;;5057117;28;20045;-68
2023/03/14 10:57:42;;;;;;;10.32;9.82;;;;;;;;;;5057723;28;20484;-64
2023/03/14 11:00:16;;;;;;;10.52;10.02;;;;;;;;;;5068258;28;20120;-64
2023/03/14 11:02:42;;;;;;;10.63;10.13;;;;;;;;;;5062569;28;20025;-64
2023/03/14 11:05:33;;;;;;;10.50;10.00;;;;;;;;;;5073843;28;20032;-65
2023/03/14 11:08:07;;;;;;;10.00;9.50;;;;;;;;;;5057693;28;20032;-64
2023/03/14 11:10:34;;;;;;;10.40;9.90;;;;;;;;;;5069197;28;20044;-64
2023/03/14 11:13:17;;;;;;;10.57;10.07;;;;;;;;;;5069198;28;20037;-65
2023/03/14 11:16:01;;;;;;;10.73;10.23;;;;;;;;;;5071580;28;20043;-65
2023/03/14 11:18:33;;;;;;;11.20;10.60;;;;;;;;;;5058265;28;20272;-65
2023/03/14 11:21:18;;;;;;;10.60;10.10;;;;;;;;;;5073740;28;20070;-63
2023/03/14 11:23:52;;;;;;;11.20;10.60;;;;;;;;;;5095061;28;21588;-64
2023/03/14 11:26:27;;;;;;;10.50;10.00;;;;;;;;;;5072662;28;20020;-65
2023/03/14 11:28:57;;;;;;;10.30;9.80;;;;;;;;;;5070272;28;20044;-64
2023/03/14 11:31:31;;;;;;;9.77;9.35;;;;;;;;;;5063859;28;20032;-65
2023/03/14 11:34:15;;;;;;;10.63;10.13;;;;;;;;;;5070287;28;20107;-66
2023/03/14 11:36:49;;;;;;;10.73;10.23;;;;;;;;;;5060257;28;20036;-64
2023/03/14 11:39:15;;;;;;;10.77;10.27;;;;;;;;;;5074359;28;20399;-65
2023/03/14 11:41:42;;;;;;;11.32;10.73;;;;;;;;;;5062381;28;20067;-69
2023/03/14 11:44:14;;;;;;;10.23;9.73;;;;;;;;;;5069401;28;20048;-67
2023/03/14 11:46:46;;;;;;;10.25;9.75;;;;;;;;;;5068614;28;20016;-69
2023/03/14 11:49:16;;;;;;;9.32;8.93;;;;;;;;;;5062050;28;20025;-68
2023/03/14 11:51:45;;;;;;;10.50;10.00;;;;;;;;;;5071224;28;20036;-67
2023/03/14 11:54:26;;;;;;;10.40;9.90;;;;;;;;;;5070960;28;20448;-68
2023/03/14 11:56:59;;;;;;;9.63;9.23;;;;;;;;;;5070616;28;20089;-67
2023/03/14 11:59:27;;;;;;;10.05;9.55;;;;;;;;;;5063053;28;20052;-66
2023/03/14 12:01:56;;;;;;;11.40;10.80;;;;;;;;;;5054392;28;20024;-68
2023/03/14 12:04:30;;;;;;;13.10;12.40;;;;;;;;;;5060336;28;20025;-71
2023/03/14 12:06:55;;;;;;;;;;;;;;;;;;5065018;28;20542;-67
2023/03/14 12:09:21;;;;;;;11.85;11.25;;;;;;;;;;5066779;28;20015;-65
2023/03/14 12:11:48;;;;;;;10.88;10.35;;;;;;;;;;5073845;28;20020;-68
2023/03/14 12:14:19;;;;;;;12.05;11.45;;;;;;;;;;5069742;28;20031;-67
2023/03/14 12:16:45;;;;;;;11.32;10.73;;;;;;;;;;5063689;28;20047;-69
2023/03/14 12:19:20;;;;;;;11.25;10.65;;;;;;;;;;5068440;28;20064;-69
2023/03/14 12:22:12;;;;;;;10.07;9.57;;;;;;;;;;5061424;28;20008;-69
2023/03/14 12:24:38;;;;;;;10.60;10.10;;;;;;;;;;5057534;28;20028;-69
2023/03/14 12:27:04;;;;;;;11.27;10.68;;;;;;;;;;5061075;28;20040;-66
2023/03/14 12:29:30;;;;;;;10.70;10.20;;;;;;;;;;5065124;28;20112;-67
2023/03/14 12:32:28;;;;;;;11.90;11.30;;;;;;;;;;5052309;28;20095;-65
2023/03/14 12:34:53;;;;;;;11.43;10.82;;;;;;;;;;5053062;28;20119;-67
2023/03/14 12:37:22;;;;;;;11.68;11.07;;;;;;;;;;5069001;28;20063;-67
2023/03/14 12:39:58;;;;;;;11.90;11.30;;;;;;;;;;5064115;28;20030;-65
2023/03/14 12:42:30;;;;;;;10.75;10.25;;;;;;;;;;5068719;28;20055;-66
2023/03/14 12:45:15;;;;;;;11.38;10.77;;;;;;;;;;5070186;28;20353;-65
2023/03/14 12:47:47;;;;;;;11.85;11.25;;;;;;;;;;5060601;28;20020;-65
2023/03/14 12:50:15;;;;;;;11.13;10.55;;;;;;;;;;5062993;28;20055;-65
2023/03/14 12:52:43;;;;;;;11.50;10.90;;;;;;;;;;5070239;28;20122;-63
2023/03/14 12:55:12;;;;;;;11.65;11.05;;;;;;;;;;5065840;28;20025;-65
2023/03/14 12:58:00;;;;;;;11.63;11.02;;;;;;;;;;5063895;28;20064;-65
2023/03/14 13:00:38;;;;;;;11.00;10.45;;;;;;;;;;5074285;28;20507;-65
2023/03/14 13:03:15;;;;;;;11.63;11.02;;;;;;;;;;5070393;28;20024;-67
2023/03/14 13:05:57;;;;;;;11.48;10.88;;;;;;;;;;5064842;28;20032;-66
2023/03/14 13:08:40;;;;;;;10.52;10.02;;;;;;;;;;5059378;28;20028;-66
2023/03/14 13:11:07;;;;;;;11.00;10.43;;;;;;;;;;5078021;28;20111;-68
2023/03/14 13:13:35;;;;;;;11.52;10.93;;;;;;;;;;5067081;28;20036;-65
2023/03/14 13:16:03;;;;;;;11.80;11.20;;;;;;;;;;5068509;28;20056;-67
2023/03/14 13:18:42;;;;;;;10.63;10.13;;;;;;;;;;5057223;28;20481;-65
2023/03/14 13:21:19;;;;;;;11.05;10.52;;;;;;;;;;5066137;28;20060;-67
2023/03/14 13:23:58;;;;;;;11.32;10.73;;;;;;;;;;5073790;28;20103;-66
2023/03/14 13:26:25;;;;;;;12.63;11.93;;;;;;;;;;5075411;28;20020;-66
2023/03/14 13:28:50;;;;;;;11.35;10.75;;;;;;;;;;5066515;28;20111;-64
2023/03/14 13:31:23;;;;;;;11.50;10.90;;;;;;;;;;5064843;28;20096;-71
2023/03/14 13:33:56;;;;;;;11.20;10.60;;;;;;;;;;5070831;28;20727;-68
2023/03/14 13:36:21;;;;;;;11.10;10.53;;;;;;;;;;5072378;28;20020;-68
2023/03/14 13:38:55;;;;;;;10.65;10.15;;;;;;;;;;5075943;28;20025;-67
2023/03/14 13:41:20;;;;;;;11.70;11.10;;;;;;;;;;5072790;28;20020;-65
2023/03/14 13:43:45;;;;;;;11.60;11.00;;;;;;;;;;5083907;28;20491;-65
2023/03/14 13:46:13;;;;;;;11.48;10.88;;;;;;;;;;5076163;28;20428;-66
2023/03/14 13:48:43;;;;;;;11.30;10.70;;;;;;;;;;5071668;28;20021;-66
2023/03/14 13:51:11;;;;;;;10.82;10.32;;;;;;;;;;5067044;28;20025;-64
2023/03/14 13:54:03;;;;;;;11.25;10.65;;;;;;;;;;5062621;28;20024;-67
2023/03/14 13:56:29;;;;;;;11.82;11.23;;;;;;;;;;5058452;28;20094;-68
2023/03/14 13:58:55;;;;;;;11.07;10.52;;;;;;;;;;5075428;28;20031;-64
2023/03/14 14:01:32;;;;;;;11.00;10.45;;;;;;;;;;5068555;28;20033;-66
2023/03/14 14:03:58;;;;;;;11.45;10.85;;;;;;;;;;5075476;28;20080;-67
2023/03/14 14:06:23;;;;;;;11.75;11.15;;;;;;;;;;5072315;28;20082;-63
2023/03/14 14:08:48;;;;;;;10.75;10.25;;;;;;;;;;5062114;28;20352;-66
2023/03/14 14:11:21;;;;;;;10.73;10.23;;;;;;;;;;5065316;28;20031;-64
2023/03/14 14:13:46;;;;;;;10.60;10.10;;;;;;;;;;5064403;28;20032;-64
2023/03/14 14:16:12;;;;;;;11.75;11.15;;;;;;;;;;5063366;28;20029;-65
2023/03/14 14:18:38;;;;;;;11.80;11.20;;;;;;;;;;5066566;28;20033;-66
2023/03/14 14:21:03;;;;;;;13.32;12.55;;;;;;;;;;5067542;28;20024;-65
2023/03/14 14:23:29;;;;;;;11.68;11.07;;;;;;;;;;5065948;28;20498;-66
2023/03/14 14:25:57;;;;;;;11.48;10.88;;;;;;;;;;5074742;28;20019;-67
2023/03/14 14:28:30;;;;;;;12.27;11.57;;;;;;;;;;5068976;28;20017;-67
2023/03/14 14:31:08;;;;;;;11.25;10.65;;;;;;;;;;5063095;28;20241;-65